Time,TemperatureF,DewpointF,PressureIn,WindDirection,WindDirectionDegrees,WindSpeedMPH,WindSpeedGustMPH,Humidity,HourlyPrecipIn,Conditions,Clouds,dailyrainin,SoftwareType,DateUTC
2013-06-18 00:01:00,80.4,-28.9,30.06,SSW,202,4.6,4.6,1,0.00,CLR,,0.00,WeatherDisplay:10.37,2013-06-18 04:01:00,
2013-06-18 00:02:00,80.4,-28.9,30.06,SSW,202,6.2,6.2,1,0.00,CLR,,0.00,WeatherDisplay:10.37,2013-06-18 04:02:00,
2013-06-18 00:04:00,80.4,-28.9,30.06,SW,225,6.9,6.9,1,0.00,CLR,,0.00,WeatherDisplay:10.37,2013-06-18 04:04:00,
2013-06-18 00:05:00,80.4,-28.9,30.06,SW,225,6.9,6.9,1,0.00,CLR,,0.00,WeatherDisplay:10.37,2013-06-18 04:05:00,
2013-06-18 00:10:00,80.2,-29.0,30.05,SSW,202,8.1,8.1,1,0.00,CLR,,0.00,WeatherDisplay:10.37,2013-06-18 04:10:00,
2013-06-18 00:15:00,80.2,-29.0,30.06,SW,225,6.9,6.9,1,0.00,CLR,,0.00,WeatherDisplay:10.37,2013-06-18 04:15:00,
2013-06-18 00:20:00,80.2,-29.0,30.06,SSW,202,5.8,5.9,1,0.00,CLR,,0.00,WeatherDisplay:10.37,2013-06-18 04:20:00,
2013-06-18 00:25:00,80.1,-29.1,30.06,South,180,5.8,5.8,1,0.00,CLR,,0.00,WeatherDisplay:10.37,2013-06-18 04:25:00,
2013-06-18 00:30:00,80.1,-29.1,30.06,SW,225,5.8,5.8,1,0.00,CLR,,0.00,WeatherDisplay:10.37,2013-06-18 04:30:00,
2013-06-18 00:35:00,79.9,-29.2,30.06,SSW,202,7.1,7.1,1,0.00,CLR,,0.00,WeatherDisplay:10.37,2013-06-18 04:35:00,
2013-06-18 00:40:00,79.9,-29.2,30.05,SSW,202,7.4,7.4,1,0.00,CLR,,0.00,WeatherDisplay:10.37,2013-06-18 04:40:00,
2013-06-18 00:45:00,79.9,-29.2,30.05,SSW,202,5.8,5.8,1,0.00,CLR,,0.00,WeatherDisplay:10.37,2013-06-18 04:45:00,
2013-06-18 00:50:00,79.7,-29.4,30.06,SSW,202,5.9,5.9,1,0.00,CLR,,0.00,WeatherDisplay:10.37,2013-06-18 04:50:00,
2013-06-18 00:55:00,79.5,-29.5,30.06,SSE,158,6.9,6.9,1,0.00,CLR,,0.00,WeatherDisplay:10.37,2013-06-18 04:55:00,
2013-06-18 01:00:00,79.5,-29.5,30.06,SW,225,4.6,4.6,1,0.00,CLR,,0.00,WeatherDisplay:10.37,2013-06-18 05:00:00,
2013-06-18 01:05:00,79.5,-29.5,30.06,SSW,202,4.6,4.6,1,0.00,CLR,,0.00,WeatherDisplay:10.37,2013-06-18 05:05:00,
2013-06-18 01:10:00,79.3,-29.6,30.06,South,180,8.7,8.7,1,0.00,CLR,,0.00,WeatherDisplay:10.37,2013-06-18 05:10:00,
2013-06-18 01:15:00,79.3,-29.6,30.05,SW,225,4.6,4.6,1,0.00,CLR,,0.00,WeatherDisplay:10.37,2013-06-18 05:15:00,
2013-06-18 01:20:00,79.2,-29.7,30.05,SSW,202,6.9,6.9,1,0.00,CLR,,0.00,WeatherDisplay:10.37,2013-06-18 05:20:00,
2013-06-18 01:25:00,79.2,-29.7,30.05,SW,225,6.7,6.7,1,0.00,CLR,,0.00,WeatherDisplay:10.37,2013-06-18 05:25:00,
2013-06-18 01:30:00,79.2,-29.7,30.05,SSW,202,5.8,5.9,1,0.00,CLR,,0.00,WeatherDisplay:10.37,2013-06-18 05:30:00,
2013-06-18 01:35:00,79.0,-29.8,30.05,SW,225,4.6,4.6,1,0.00,CLR,,0.00,WeatherDisplay:10.37,2013-06-18 05:35:00,
2013-06-18 01:40:00,79.0,-29.8,30.05,SW,225,6.9,6.9,1,0.00,CLR,,0.00,WeatherDisplay:10.37,2013-06-18 05:40:00,
2013-06-18 01:45:00,79.0,-29.8,30.05,SSW,202,6.9,6.9,1,0.00,CLR,,0.00,WeatherDisplay:10.37,2013-06-18 05:45:00,
2013-06-18 01:50:00,78.8,-29.9,30.05,SW,225,6.9,6.9,1,0.00,CLR,,0.00,WeatherDisplay:10.37,2013-06-18 05:50:00,
2013-06-18 01:55:00,78.8,-29.9,30.05,SW,225,5.4,5.4,1,0.00,CLR,,0.00,WeatherDisplay:10.37,2013-06-18 05:55:00,
2013-06-18 02:00:00,78.8,-29.9,30.05,SW,225,6.9,6.9,1,0.00,CLR,,0.00,WeatherDisplay:10.37,2013-06-18 06:00:00,
2013-06-18 02:05:00,78.6,-30.0,30.05,SSW,202,7.1,7.1,1,0.00,CLR,,0.00,WeatherDisplay:10.37,2013-06-18 06:05:00,
2013-06-18 02:10:00,78.6,-30.0,30.05,SW,225,5.8,5.8,1,0.00,CLR,,0.00,WeatherDisplay:10.37,2013-06-18 06:10:00,
2013-06-18 02:15:00,78.6,-30.0,30.04,SW,225,3.6,3.6,1,0.00,CLR,,0.00,WeatherDisplay:10.37,2013-06-18 06:15:00,
2013-06-18 02:20:00,78.4,-30.1,30.04,SW,225,4.6,4.6,1,0.00,CLR,,0.00,WeatherDisplay:10.37,2013-06-18 06:20:00,
2013-06-18 02:25:00,78.4,-30.1,30.04,SW,225,4.6,4.6,1,0.00,CLR,,0.00,WeatherDisplay:10.37,2013-06-18 06:25:00,
2013-06-18 02:30:00,78.4,-30.1,30.04,SW,225,3.3,3.3,1,0.00,CLR,,0.00,WeatherDisplay:10.37,2013-06-18 06:30:00,
2013-06-18 02:35:00,78.4,-30.1,30.03,SW,225,3.5,3.5,1,0.00,CLR,,0.00,WeatherDisplay:10.37,2013-06-18 06:35:00,
2013-06-18 02:40:00,78.4,-30.1,30.03,SSW,202,4.6,4.6,1,0.00,CLR,,0.00,WeatherDisplay:10.37,2013-06-18 06:40:00,
2013-06-18 02:45:00,78.3,-30.2,30.03,SSW,202,5.8,5.8,1,0.00,CLR,,0.00,WeatherDisplay:10.37,2013-06-18 06:45:00,
2013-06-18 02:50:00,78.3,-30.2,30.02,SSW,202,4.9,4.9,1,0.00,CLR,,0.00,WeatherDisplay:10.37,2013-06-18 06:50:00,
2013-06-18 02:55:00,78.3,-30.2,30.02,SW,225,4.6,6.9,1,0.00,CLR,,0.00,WeatherDisplay:10.37,2013-06-18 06:55:00,
2013-06-18 03:00:00,78.3,-30.2,30.02,South,180,6.9,6.9,1,0.00,CLR,,0.00,WeatherDisplay:10.37,2013-06-18 07:00:00,
2013-06-18 03:05:00,78.3,-30.2,30.02,SSW,202,8.1,8.1,1,0.00,CLR,,0.00,WeatherDisplay:10.37,2013-06-18 07:05:00,
2013-06-18 03:10:00,78.1,-30.3,30.01,SSW,202,5.8,5.8,1,0.00,CLR,,0.00,WeatherDisplay:10.37,2013-06-18 07:10:00,
2013-06-18 03:15:00,78.1,-30.3,30.01,SSW,202,4.6,4.6,1,0.00,CLR,,0.00,WeatherDisplay:10.37,2013-06-18 07:15:00,
2013-06-18 03:20:00,78.1,-30.3,30.02,SSW,202,3.5,3.5,1,0.00,CLR,,0.00,WeatherDisplay:10.37,2013-06-18 07:20:00,
2013-06-18 03:25:00,78.1,-30.3,30.02,SSW,202,6.0,6.0,1,0.00,CLR,,0.00,WeatherDisplay:10.37,2013-06-18 07:25:00,
2013-06-18 03:30:00,78.1,-30.3,30.01,South,180,5.8,5.8,1,0.00,CLR,,0.00,WeatherDisplay:10.37,2013-06-18 07:30:00,
2013-06-18 03:35:00,78.1,-30.3,30.01,SSW,202,5.8,5.8,1,0.00,CLR,,0.00,WeatherDisplay:10.37,2013-06-18 07:35:00,
2013-06-18 03:40:00,77.9,-30.4,30.01,SW,225,5.8,5.8,1,0.00,CLR,,0.00,WeatherDisplay:10.37,2013-06-18 07:40:00,
2013-06-18 03:45:00,77.9,-30.4,30.01,SW,225,4.6,4.6,1,0.00,CLR,,0.00,WeatherDisplay:10.37,2013-06-18 07:45:00,
2013-06-18 03:50:00,77.7,-30.5,30.01,SW,225,2.6,2.6,1,0.00,CLR,,0.00,WeatherDisplay:10.37,2013-06-18 07:50:00,
2013-06-18 03:55:00,77.7,-30.5,30.01,SSW,202,5.8,5.8,1,0.00,CLR,,0.00,WeatherDisplay:10.37,2013-06-18 07:55:00,
2013-06-18 04:00:00,77.7,-30.5,30.01,West,270,5.8,5.8,1,0.00,CLR,,0.00,WeatherDisplay:10.37,2013-06-18 08:00:00,
2013-06-18 04:05:00,77.7,-30.5,30.01,SW,225,5.8,5.8,1,0.00,CLR,,0.00,WeatherDisplay:10.37,2013-06-18 08:05:00,
2013-06-18 04:10:00,77.5,-30.7,30.00,SW,225,4.6,4.6,1,0.00,CLR,,0.00,WeatherDisplay:10.37,2013-06-18 08:10:00,
2013-06-18 04:15:00,77.5,-30.7,30.00,SW,225,5.8,5.8,1,0.00,CLR,,0.00,WeatherDisplay:10.37,2013-06-18 08:15:00,
2013-06-18 04:20:00,77.5,-30.7,30.00,SSW,202,4.6,4.6,1,0.00,CLR,,0.00,WeatherDisplay:10.37,2013-06-18 08:20:00,
2013-06-18 04:25:00,77.5,-30.7,30.00,West,270,5.8,5.8,1,0.00,CLR,,0.00,WeatherDisplay:10.37,2013-06-18 08:25:00,
2013-06-18 04:30:00,77.5,-30.7,30.00,SW,225,3.5,3.5,1,0.00,CLR,,0.00,WeatherDisplay:10.37,2013-06-18 08:30:00,
2013-06-18 04:35:00,77.5,-30.7,30.01,SW,225,4.6,4.6,1,0.00,CLR,,0.00,WeatherDisplay:10.37,2013-06-18 08:35:00,
2013-06-18 04:40:00,77.5,-30.7,30.00,SW,225,3.5,3.5,1,0.00,CLR,,0.00,WeatherDisplay:10.37,2013-06-18 08:40:00,
2013-06-18 04:45:00,77.4,-30.8,30.00,WSW,248,5.8,5.8,1,0.00,CLR,,0.00,WeatherDisplay:10.37,2013-06-18 08:45:00,
2013-06-18 04:50:00,77.4,-30.8,30.00,WSW,248,2.3,2.3,1,0.00,CLR,,0.00,WeatherDisplay:10.37,2013-06-18 08:50:00,
2013-06-18 04:55:00,77.4,-30.8,30.00,SW,225,4.6,4.6,1,0.00,CLR,,0.00,WeatherDisplay:10.37,2013-06-18 08:55:00,
2013-06-18 05:00:00,77.4,-30.8,30.00,West,270,2.3,2.3,1,0.00,CLR,,0.00,WeatherDisplay:10.37,2013-06-18 09:00:00,
2013-06-18 05:05:00,77.4,-30.8,30.01,SW,225,3.3,3.3,1,0.00,CLR,,0.00,WeatherDisplay:10.37,2013-06-18 09:05:00,
2013-06-18 05:10:00,77.4,-30.8,30.02,SW,225,3.5,3.5,1,0.00,CLR,,0.00,WeatherDisplay:10.37,2013-06-18 09:10:00,
2013-06-18 05:15:00,77.2,-30.9,30.01,SSW,202,3.5,3.5,1,0.00,CLR,,0.00,WeatherDisplay:10.37,2013-06-18 09:15:00,
2013-06-18 05:20:00,77.2,-30.9,30.02,SW,225,4.0,4.0,1,0.00,CLR,,0.00,WeatherDisplay:10.37,2013-06-18 09:20:00,
2013-06-18 05:25:00,77.2,-30.9,30.02,WSW,248,2.9,2.9,1,0.00,CLR,,0.00,WeatherDisplay:10.37,2013-06-18 09:25:00,
2013-06-18 05:30:00,77.2,-30.9,30.02,WSW,248,2.3,2.3,1,0.00,CLR,,0.00,WeatherDisplay:10.37,2013-06-18 09:30:00,
2013-06-18 05:35:00,77.2,-30.9,30.02,WSW,248,4.6,4.6,1,0.00,CLR,,0.00,WeatherDisplay:10.37,2013-06-18 09:35:00,
2013-06-18 05:40:00,77.2,-30.9,30.02,SW,225,2.3,2.3,1,0.00,CLR,,0.00,WeatherDisplay:10.37,2013-06-18 09:40:00,
2013-06-18 05:45:00,77.2,-30.9,30.03,SW,225,2.6,2.6,1,0.00,CLR,,0.00,WeatherDisplay:10.37,2013-06-18 09:45:00,
2013-06-18 05:50:00,77.0,-31.0,30.03,West,270,2.3,2.3,1,0.00,CLR,,0.00,WeatherDisplay:10.37,2013-06-18 09:50:00,
2013-06-18 05:55:00,77.0,-31.0,30.03,SW,225,2.3,2.9,1,0.00,CLR,,0.00,WeatherDisplay:10.37,2013-06-18 09:55:00,
2013-06-18 06:00:00,77.0,-31.0,30.03,SW,225,3.5,3.5,1,0.00,CLR,,0.00,WeatherDisplay:10.37,2013-06-18 10:00:00,
2013-06-18 06:05:00,77.0,-31.0,30.03,WSW,248,3.6,3.6,1,0.00,CLR,,0.00,WeatherDisplay:10.37,2013-06-18 10:05:00,
2013-06-18 06:10:00,77.0,-31.0,30.04,WSW,248,3.5,3.5,1,0.00,CLR,,0.00,WeatherDisplay:10.37,2013-06-18 10:10:00,
2013-06-18 06:15:00,77.0,-31.0,30.04,SW,225,3.5,3.5,1,0.00,CLR,,0.00,WeatherDisplay:10.37,2013-06-18 10:15:00,
2013-06-18 06:20:00,77.0,-31.0,30.04,SW,225,3.5,3.5,1,0.00,CLR,,0.00,WeatherDisplay:10.37,2013-06-18 10:20:00,
2013-06-18 06:25:00,77.0,-31.0,30.04,SW,225,2.3,2.3,1,0.00,CLR,,0.00,WeatherDisplay:10.37,2013-06-18 10:25:00,
2013-06-18 06:30:00,76.8,-31.1,30.04,SSW,202,4.6,4.6,1,0.00,CLR,,0.00,WeatherDisplay:10.37,2013-06-18 10:30:00,
2013-06-18 06:35:00,76.8,-31.1,30.04,SSW,202,4.0,4.0,1,0.00,CLR,,0.00,WeatherDisplay:10.37,2013-06-18 10:35:00,
2013-06-18 06:40:00,76.8,-31.1,30.05,SSW,202,2.3,2.3,1,0.00,CLR,,0.00,WeatherDisplay:10.37,2013-06-18 10:40:00,
2013-06-18 06:45:00,77.0,-31.0,30.05,SW,225,3.5,3.5,1,0.00,CLR,,0.00,WeatherDisplay:10.37,2013-06-18 10:45:00,
2013-06-18 06:50:00,77.0,-31.0,30.05,SW,225,2.3,2.3,1,0.00,CLR,,0.00,WeatherDisplay:10.37,2013-06-18 10:50:00,
2013-06-18 06:55:00,77.4,-30.8,30.05,SW,225,1.1,1.1,1,0.00,CLR,,0.00,WeatherDisplay:10.37,2013-06-18 10:55:00,
2013-06-18 07:00:00,77.7,-30.5,30.05,SW,225,1.1,1.1,1,0.00,CLR,,0.00,WeatherDisplay:10.37,2013-06-18 11:00:00,
2013-06-18 07:05:00,78.1,-30.3,30.06,SSW,202,2.4,2.4,1,0.00,CLR,,0.00,WeatherDisplay:10.37,2013-06-18 11:05:00,
2013-06-18 07:10:00,78.3,-30.2,30.06,SSW,202,4.6,4.6,1,0.00,CLR,,0.00,WeatherDisplay:10.37,2013-06-18 11:10:00,
2013-06-18 07:15:00,78.4,-30.1,30.06,SSW,202,3.5,3.5,1,0.00,CLR,,0.00,WeatherDisplay:10.37,2013-06-18 11:15:00,
2013-06-18 07:20:00,78.8,-29.9,30.06,South,180,3.5,3.5,1,0.00,CLR,,0.00,WeatherDisplay:10.37,2013-06-18 11:20:00,
2013-06-18 07:25:00,79.5,-29.5,30.05,SW,225,2.3,2.3,1,0.00,CLR,,0.00,WeatherDisplay:10.37,2013-06-18 11:25:00,
2013-06-18 07:30:00,80.2,-29.0,30.06,WSW,248,2.3,2.3,1,0.00,CLR,,0.00,WeatherDisplay:10.37,2013-06-18 11:30:00,
2013-06-18 07:35:00,81.0,-28.6,30.05,WSW,248,3.5,3.5,1,0.00,CLR,,0.00,WeatherDisplay:10.37,2013-06-18 11:35:00,
2013-06-18 07:40:00,81.5,-28.3,30.06,SW,225,4.7,4.7,1,0.00,CLR,,0.00,WeatherDisplay:10.37,2013-06-18 11:40:00,
2013-06-18 07:45:00,82.0,-28.0,30.05,WSW,248,4.6,4.6,1,0.00,CLR,,0.00,WeatherDisplay:10.37,2013-06-18 11:45:00,
2013-06-18 07:50:00,82.6,-27.6,30.06,SW,225,4.6,4.6,1,0.00,CLR,,0.00,WeatherDisplay:10.37,2013-06-18 11:50:00,
2013-06-18 07:55:00,83.1,-27.3,30.05,WSW,248,4.3,4.3,1,0.00,CLR,,0.00,WeatherDisplay:10.37,2013-06-18 11:55:00,
2013-06-18 08:00:00,83.7,-27.0,30.06,WSW,248,6.0,6.0,1,0.00,CLR,,0.00,WeatherDisplay:10.37,2013-06-18 12:00:00,
2013-06-18 08:05:00,84.2,-26.7,30.06,SW,225,4.6,4.6,1,0.00,CLR,,0.00,WeatherDisplay:10.37,2013-06-18 12:05:00,
2013-06-18 08:10:00,84.6,-26.4,30.06,SW,225,5.8,5.8,1,0.00,CLR,,0.00,WeatherDisplay:10.37,2013-06-18 12:10:00,
2013-06-18 08:15:00,84.9,-26.2,30.06,SSW,202,4.6,4.6,1,0.00,CLR,,0.00,WeatherDisplay:10.37,2013-06-18 12:15:00,
2013-06-18 08:20:00,85.3,-26.0,30.06,WNW,292,3.5,3.5,1,0.00,CLR,,0.00,WeatherDisplay:10.37,2013-06-18 12:20:00,
2013-06-18 08:25:00,86.0,-25.6,30.06,SW,225,4.6,4.6,1,0.00,CLR,,0.00,WeatherDisplay:10.37,2013-06-18 12:25:00,
2013-06-18 08:30:00,86.5,-25.3,30.06,SSW,202,4.0,4.0,1,0.00,CLR,,0.00,WeatherDisplay:10.37,2013-06-18 12:30:00,
2013-06-18 08:35:00,87.1,-24.9,30.06,SW,225,4.6,4.6,1,0.00,CLR,,0.00,WeatherDisplay:10.37,2013-06-18 12:35:00,
2013-06-18 08:40:00,87.6,-24.6,30.06,SSW,202,3.6,3.6,1,0.00,CLR,,0.00,WeatherDisplay:10.37,2013-06-18 12:40:00,
2013-06-18 08:45:00,88.2,-24.3,30.06,SW,225,6.9,6.9,1,0.00,CLR,,0.00,WeatherDisplay:10.37,2013-06-18 12:45:00,
2013-06-18 08:50:00,88.9,-23.9,30.06,WSW,248,4.6,4.6,1,0.00,CLR,,0.00,WeatherDisplay:10.37,2013-06-18 12:50:00,
2013-06-18 08:55:00,89.2,-23.6,30.06,WSW,248,5.8,5.8,1,0.00,CLR,,0.00,WeatherDisplay:10.37,2013-06-18 12:55:00,
2013-06-18 09:00:00,89.8,-23.3,30.06,SW,225,6.2,6.2,1,0.00,CLR,,0.00,WeatherDisplay:10.37,2013-06-18 13:00:00,
2013-06-18 09:05:00,90.3,-23.0,30.06,WSW,248,5.8,5.8,1,0.00,CLR,,0.00,WeatherDisplay:10.37,2013-06-18 13:05:00,
2013-06-18 09:10:00,90.7,-22.8,30.06,SW,225,8.1,8.1,1,0.00,CLR,,0.00,WeatherDisplay:10.37,2013-06-18 13:10:00,
2013-06-18 09:15:00,91.0,-22.6,30.06,SW,225,5.8,5.8,1,0.00,CLR,,0.00,WeatherDisplay:10.37,2013-06-18 13:15:00,
2013-06-18 09:20:00,91.0,-22.6,30.06,SSW,202,7.4,7.4,1,0.00,CLR,,0.00,WeatherDisplay:10.37,2013-06-18 13:20:00,
2013-06-18 09:25:00,91.2,-22.5,30.06,SSW,202,5.8,5.8,1,0.00,CLR,,0.00,WeatherDisplay:10.37,2013-06-18 13:25:00,
2013-06-18 09:30:00,91.2,-22.5,30.06,SW,225,9.4,9.4,1,0.00,CLR,,0.00,WeatherDisplay:10.37,2013-06-18 13:30:00,
2013-06-18 09:35:00,91.0,-22.6,30.06,WSW,248,8.5,8.5,1,0.00,CLR,,0.00,WeatherDisplay:10.37,2013-06-18 13:35:00,
2013-06-18 09:40:00,91.0,-22.6,30.06,SSW,202,9.2,9.2,1,0.00,CLR,,0.00,WeatherDisplay:10.37,2013-06-18 13:40:00,
2013-06-18 09:45:00,91.0,-22.6,30.06,SW,225,6.9,6.9,1,0.00,CLR,,0.00,WeatherDisplay:10.37,2013-06-18 13:45:00,
2013-06-18 09:50:00,91.4,-22.4,30.06,SW,225,9.9,9.9,1,0.00,CLR,,0.00,WeatherDisplay:10.37,2013-06-18 13:50:00,
2013-06-18 09:55:00,91.4,-22.4,30.06,SW,225,9.2,9.2,1,0.00,CLR,,0.00,WeatherDisplay:10.37,2013-06-18 13:55:00,
2013-06-18 10:00:00,91.6,-22.3,30.06,WSW,248,10.9,10.9,1,0.00,CLR,,0.00,WeatherDisplay:10.37,2013-06-18 14:00:00,
2013-06-18 10:05:00,91.6,-22.3,30.06,SSW,202,6.9,6.9,1,0.00,CLR,,0.00,WeatherDisplay:10.37,2013-06-18 14:05:00,
2013-06-18 10:10:00,91.8,-22.1,30.06,SW,225,8.1,8.1,1,0.00,CLR,,0.00,WeatherDisplay:10.37,2013-06-18 14:10:00,
2013-06-18 10:15:00,91.8,-22.1,30.06,SW,225,8.1,8.1,1,0.00,CLR,,0.00,WeatherDisplay:10.37,2013-06-18 14:15:00,
2013-06-18 10:20:00,91.9,-22.0,30.06,WSW,248,7.4,7.4,1,0.00,CLR,,0.00,WeatherDisplay:10.37,2013-06-18 14:20:00,
2013-06-18 10:25:00,92.1,-21.9,30.06,SW,225,8.1,8.1,1,0.00,CLR,,0.00,WeatherDisplay:10.37,2013-06-18 14:25:00,
2013-06-18 10:30:00,92.1,-21.9,30.07,WSW,248,9.2,9.2,1,0.00,CLR,,0.00,WeatherDisplay:10.37,2013-06-18 14:30:00,
2013-06-18 10:35:00,92.1,-21.9,30.06,WSW,248,11.5,11.5,1,0.00,CLR,,0.00,WeatherDisplay:10.37,2013-06-18 14:35:00,
2013-06-18 10:40:00,92.1,-21.9,30.07,WSW,248,10.5,10.5,1,0.00,CLR,,0.00,WeatherDisplay:10.37,2013-06-18 14:40:00,
2013-06-18 10:45:00,91.9,-22.0,30.06,SSW,202,8.1,9.2,1,0.00,CLR,,0.00,WeatherDisplay:10.37,2013-06-18 14:45:00,
2013-06-18 10:50:00,92.1,-21.9,30.06,SW,225,10.5,10.5,1,0.00,CLR,,0.00,WeatherDisplay:10.37,2013-06-18 14:50:00,
2013-06-18 10:55:00,92.1,-21.9,30.06,SW,225,9.2,9.2,1,0.00,CLR,,0.00,WeatherDisplay:10.37,2013-06-18 14:55:00,
2013-06-18 11:00:00,92.3,-21.8,30.06,WSW,248,5.8,5.8,1,0.00,CLR,,0.00,WeatherDisplay:10.37,2013-06-18 15:00:00,
2013-06-18 11:05:00,92.7,-21.6,30.06,WSW,248,8.1,8.1,1,0.00,CLR,,0.00,WeatherDisplay:10.37,2013-06-18 15:05:00,
2013-06-18 11:10:00,92.8,-7.8,30.06,SW,225,6.4,6.4,2,0.00,CLR,,0.00,WeatherDisplay:10.37,2013-06-18 15:10:00,
2013-06-18 11:15:00,93.0,19.9,30.06,WSW,248,15.0,15.0,7,0.00,CLR,,0.00,WeatherDisplay:10.37,2013-06-18 15:15:00,
2013-06-18 11:20:00,93.2,33.0,30.06,NNW,338,12.7,12.7,12,0.00,CLR,,0.00,WeatherDisplay:10.37,2013-06-18 15:20:00,
2013-06-18 11:25:00,93.4,35.2,30.06,WSW,248,10.4,10.4,13,0.00,CLR,,0.00,WeatherDisplay:10.37,2013-06-18 15:25:00,
2013-06-18 11:30:00,93.6,39.0,30.06,WSW,248,10.4,10.4,15,0.00,CLR,,0.00,WeatherDisplay:10.37,2013-06-18 15:30:00,
2013-06-18 11:35:00,93.6,42.2,30.06,WSW,248,10.7,10.7,17,0.00,CLR,,0.00,WeatherDisplay:10.37,2013-06-18 15:35:00,
2013-06-18 11:40:00,93.6,45.1,30.06,SW,225,8.1,8.1,19,0.00,CLR,,0.00,WeatherDisplay:10.37,2013-06-18 15:40:00,
2013-06-18 11:45:00,93.6,45.1,30.06,WSW,248,11.5,11.5,19,0.00,CLR,,0.00,WeatherDisplay:10.37,2013-06-18 15:45:00,
2013-06-18 11:50:00,93.9,44.0,30.06,WSW,248,11.5,11.5,18,0.00,CLR,,0.00,WeatherDisplay:10.37,2013-06-18 15:50:00,
2013-06-18 11:55:00,93.9,45.4,30.06,WSW,248,9.2,9.2,19,0.00,CLR,,0.00,WeatherDisplay:10.37,2013-06-18 15:55:00,
2013-06-18 12:00:00,93.9,48.1,30.06,WNW,292,8.3,8.3,21,0.00,CLR,,0.00,WeatherDisplay:10.37,2013-06-18 16:00:00,
2013-06-18 12:05:00,94.1,48.2,30.06,WSW,248,6.9,6.9,21,0.00,CLR,,0.00,WeatherDisplay:10.37,2013-06-18 16:05:00,
2013-06-18 12:10:00,94.1,50.6,30.06,SW,225,8.1,8.1,23,0.00,CLR,,0.00,WeatherDisplay:10.37,2013-06-18 16:10:00,
2013-06-18 12:15:00,93.9,51.6,30.06,WSW,248,10.4,10.4,24,0.00,CLR,,0.00,WeatherDisplay:10.37,2013-06-18 16:15:00,
2013-06-18 12:20:00,94.3,51.9,30.06,SW,225,4.6,4.6,24,0.00,CLR,,0.00,WeatherDisplay:10.37,2013-06-18 16:20:00,
2013-06-18 12:25:00,94.5,53.2,30.06,SW,225,11.5,11.5,25,0.00,CLR,,0.00,WeatherDisplay:10.37,2013-06-18 16:25:00,
2013-06-18 12:30:00,94.6,54.4,30.05,WSW,248,4.7,4.7,26,0.00,CLR,,0.00,WeatherDisplay:10.37,2013-06-18 16:30:00,
2013-06-18 12:35:00,95.0,55.8,30.05,WSW,248,10.4,10.4,27,0.00,CLR,,0.00,WeatherDisplay:10.37,2013-06-18 16:35:00,
2013-06-18 12:40:00,95.2,57.9,30.05,SW,225,11.5,11.5,29,0.00,CLR,,0.00,WeatherDisplay:10.37,2013-06-18 16:40:00,
2013-06-18 12:45:00,95.4,59.9,30.04,West,270,12.7,12.7,31,0.00,CLR,,0.00,WeatherDisplay:10.37,2013-06-18 16:45:00,
2013-06-18 12:50:00,95.5,60.1,30.04,SSW,202,10.4,10.4,31,0.00,CLR,,0.00,WeatherDisplay:10.37,2013-06-18 16:50:00,
2013-06-18 12:55:00,95.7,60.2,30.05,West,270,10.4,10.4,31,0.00,CLR,,0.00,WeatherDisplay:10.37,2013-06-18 16:55:00,
2013-06-18 13:00:00,96.1,60.6,30.04,WNW,292,10.4,10.4,31,0.00,CLR,,0.00,WeatherDisplay:10.37,2013-06-18 17:00:00,
2013-06-18 13:05:00,96.4,60.9,30.04,West,270,10.4,10.4,31,0.00,CLR,,0.00,WeatherDisplay:10.37,2013-06-18 17:05:00,
2013-06-18 13:10:00,96.8,62.1,30.04,West,270,5.8,5.8,32,0.00,CLR,,0.00,WeatherDisplay:10.37,2013-06-18 17:10:00,
2013-06-18 13:15:00,97.0,63.1,30.04,West,270,5.8,5.8,33,0.00,CLR,,0.00,WeatherDisplay:10.37,2013-06-18 17:15:00,
2013-06-18 13:20:00,97.2,63.3,30.03,West,270,6.9,9.2,33,0.00,CLR,,0.00,WeatherDisplay:10.37,2013-06-18 17:20:00,
2013-06-18 13:25:00,97.3,64.3,30.03,WNW,292,6.9,6.9,34,0.00,CLR,,0.00,WeatherDisplay:10.37,2013-06-18 17:25:00,
2013-06-18 13:30:00,97.3,65.1,30.03,WNW,292,6.9,6.9,35,0.00,CLR,,0.00,WeatherDisplay:10.37,2013-06-18 17:30:00,
2013-06-18 13:35:00,97.5,65.3,30.03,West,270,4.6,4.6,35,0.00,CLR,,0.00,WeatherDisplay:10.37,2013-06-18 17:35:00,
2013-06-18 13:40:00,97.9,65.6,30.03,WSW,248,6.9,6.9,35,0.00,CLR,,0.00,WeatherDisplay:10.37,2013-06-18 17:40:00,
2013-06-18 13:45:00,98.2,66.7,30.03,SW,225,11.5,11.5,36,0.00,CLR,,0.00,WeatherDisplay:10.37,2013-06-18 17:45:00,
2013-06-18 13:50:00,98.2,69.0,30.03,SW,225,10.4,10.4,39,0.00,CLR,,0.00,WeatherDisplay:10.37,2013-06-18 17:50:00,
2013-06-18 13:55:00,98.1,69.6,30.02,WSW,248,10.4,10.4,40,0.00,CLR,,0.00,WeatherDisplay:10.37,2013-06-18 17:55:00,
2013-06-18 14:00:00,97.9,70.2,30.02,WSW,248,7.4,7.4,41,0.00,CLR,,0.00,WeatherDisplay:10.37,2013-06-18 18:00:00,
2013-06-18 14:05:00,98.1,71.1,30.02,South,180,8.1,8.1,42,0.00,CLR,,0.00,WeatherDisplay:10.37,2013-06-18 18:05:00,
2013-06-18 14:10:00,98.2,71.9,30.02,WSW,248,13.8,13.8,43,0.00,CLR,,0.00,WeatherDisplay:10.37,2013-06-18 18:10:00,
2013-06-18 14:15:00,98.8,73.1,30.01,WSW,248,6.9,6.9,44,0.00,CLR,,0.00,WeatherDisplay:10.37,2013-06-18 18:15:00,
2013-06-18 14:20:00,99.0,73.9,30.02,WSW,248,8.3,8.3,45,0.00,CLR,,0.00,WeatherDisplay:10.37,2013-06-18 18:20:00,
2013-06-18 14:25:00,99.3,74.2,30.01,WSW,248,9.2,9.2,45,0.00,CLR,,0.00,WeatherDisplay:10.37,2013-06-18 18:25:00,
2013-06-18 14:30:00,99.7,74.6,30.01,WSW,248,9.2,9.2,45,0.00,CLR,,0.00,WeatherDisplay:10.37,2013-06-18 18:30:00,
2013-06-18 14:35:00,99.9,74.7,30.01,WSW,248,12.1,12.1,45,0.00,CLR,,0.00,WeatherDisplay:10.37,2013-06-18 18:35:00,
2013-06-18 14:40:00,100.2,75.0,30.00,SSW,202,8.1,8.1,45,0.00,CLR,,0.00,WeatherDisplay:10.37,2013-06-18 18:40:00,
2013-06-18 14:45:00,100.4,75.2,30.00,WSW,248,9.2,9.2,45,0.00,CLR,,0.00,WeatherDisplay:10.37,2013-06-18 18:45:00,
2013-06-18 14:50:00,100.4,75.2,30.00,WSW,248,9.2,9.2,45,0.00,CLR,,0.00,WeatherDisplay:10.37,2013-06-18 18:50:00,
2013-06-18 14:55:00,100.4,75.9,30.00,WSW,248,7.8,7.8,46,0.00,CLR,,0.00,WeatherDisplay:10.37,2013-06-18 18:55:00,
2013-06-18 15:00:00,100.6,75.4,30.00,WSW,248,13.7,13.7,45,0.00,CLR,,0.00,WeatherDisplay:10.37,2013-06-18 19:00:00,
2013-06-18 15:05:00,100.6,75.4,30.00,WSW,248,14.7,14.7,45,0.00,CLR,,0.00,WeatherDisplay:10.37,2013-06-18 19:05:00,
2013-06-18 15:10:00,100.4,75.2,30.00,WSW,248,13.2,13.2,45,0.00,CLR,,0.00,WeatherDisplay:10.37,2013-06-18 19:10:00,
2013-06-18 15:15:00,100.4,75.2,30.00,SSW,202,6.9,6.9,45,0.00,CLR,,0.00,WeatherDisplay:10.37,2013-06-18 19:15:00,
2013-06-18 15:20:00,100.4,75.2,29.99,West,270,8.1,8.1,45,0.00,CLR,,0.00,WeatherDisplay:10.37,2013-06-18 19:20:00,
2013-06-18 15:25:00,100.4,75.2,29.99,WSW,248,11.5,11.5,45,0.00,CLR,,0.00,WeatherDisplay:10.37,2013-06-18 19:25:00,
2013-06-18 15:30:00,100.2,75.0,29.99,WSW,248,10.4,10.4,45,0.00,CLR,,0.00,WeatherDisplay:10.37,2013-06-18 19:30:00,
2013-06-18 15:35:00,99.9,74.7,29.99,WSW,248,9.2,9.2,45,0.00,CLR,,0.00,WeatherDisplay:10.37,2013-06-18 19:35:00,
2013-06-18 15:40:00,99.5,74.4,29.98,WSW,248,6.9,6.9,45,0.00,CLR,,0.00,WeatherDisplay:10.37,2013-06-18 19:40:00,
2013-06-18 15:45:00,99.0,73.9,29.98,WSW,248,15.0,15.0,45,0.00,CLR,,0.00,WeatherDisplay:10.37,2013-06-18 19:45:00,
2013-06-18 15:50:00,98.4,73.4,29.98,SW,225,9.2,9.2,45,0.00,CLR,,0.00,WeatherDisplay:10.37,2013-06-18 19:50:00,
2013-06-18 15:55:00,97.9,73.6,29.98,WSW,248,11.5,11.5,46,0.00,CLR,,0.00,WeatherDisplay:10.37,2013-06-18 19:55:00,
2013-06-18 16:00:00,97.5,73.3,29.98,WSW,248,9.2,9.2,46,0.00,CLR,,0.00,WeatherDisplay:10.37,2013-06-18 20:00:00,
2013-06-18 16:05:00,97.2,72.9,29.98,WNW,292,10.4,10.4,46,0.00,CLR,,0.00,WeatherDisplay:10.37,2013-06-18 20:05:00,
2013-06-18 16:11:00,96.8,72.6,29.98,SSW,202,9.2,9.2,46,0.00,CLR,,0.00,WeatherDisplay:10.37,2013-06-18 20:11:00,
2013-06-18 16:16:00,96.4,72.3,29.97,West,270,10.4,10.4,46,0.00,CLR,,0.00,WeatherDisplay:10.37,2013-06-18 20:16:00,
2013-06-18 16:21:00,96.4,72.3,29.97,SW,225,10.4,10.4,46,0.00,CLR,,0.00,WeatherDisplay:10.37,2013-06-18 20:21:00,
2013-06-18 16:26:00,96.1,72.0,29.97,SW,225,11.5,11.5,46,0.00,CLR,,0.00,WeatherDisplay:10.37,2013-06-18 20:26:00,
2013-06-18 16:31:00,95.7,72.3,29.97,SSW,202,9.2,9.2,47,0.00,CLR,,0.00,WeatherDisplay:10.37,2013-06-18 20:31:00,
2013-06-18 16:36:00,95.7,72.3,29.97,SW,225,6.9,6.9,47,0.00,CLR,,0.00,WeatherDisplay:10.37,2013-06-18 20:36:00,
2013-06-18 16:41:00,95.5,72.1,29.97,SW,225,6.2,6.2,47,0.00,CLR,,0.00,WeatherDisplay:10.37,2013-06-18 20:41:00,
2013-06-18 16:46:00,95.4,71.9,29.97,WSW,248,15.0,15.0,47,0.00,CLR,,0.00,WeatherDisplay:10.37,2013-06-18 20:46:00,
2013-06-18 16:51:00,95.2,71.8,29.97,SSW,202,7.1,7.1,47,0.00,CLR,,0.00,WeatherDisplay:10.37,2013-06-18 20:51:00,
2013-06-18 16:56:00,95.0,71.0,29.97,WSW,248,10.4,10.4,46,0.00,CLR,,0.00,WeatherDisplay:10.37,2013-06-18 20:56:00,
2013-06-18 17:01:00,94.8,71.4,29.97,WNW,292,10.4,10.4,47,0.00,CLR,,0.00,WeatherDisplay:10.37,2013-06-18 21:01:00,
2013-06-18 17:06:00,94.6,71.3,29.97,WNW,292,8.1,8.5,47,0.00,CLR,,0.00,WeatherDisplay:10.37,2013-06-18 21:06:00,
2013-06-18 17:11:00,94.6,71.3,29.97,West,270,6.9,6.9,47,0.00,CLR,,0.00,WeatherDisplay:10.37,2013-06-18 21:11:00,
2013-06-18 17:16:00,94.6,71.3,29.97,SW,225,8.1,8.1,47,0.00,CLR,,0.00,WeatherDisplay:10.37,2013-06-18 21:16:00,
2013-06-18 17:21:00,94.5,71.1,29.97,WSW,248,9.2,9.2,47,0.00,CLR,,0.00,WeatherDisplay:10.37,2013-06-18 21:21:00,
2013-06-18 17:26:00,94.3,71.0,29.97,WSW,248,10.4,10.4,47,0.00,CLR,,0.00,WeatherDisplay:10.37,2013-06-18 21:26:00,
2013-06-18 17:31:00,94.3,71.0,29.97,WSW,248,12.7,12.7,47,0.00,CLR,,0.00,WeatherDisplay:10.37,2013-06-18 21:31:00,
2013-06-18 17:36:00,94.1,70.8,29.97,SW,225,5.8,5.8,47,0.00,CLR,,0.00,WeatherDisplay:10.37,2013-06-18 21:36:00,
2013-06-18 17:41:00,94.1,70.8,29.96,WSW,248,6.9,6.9,47,0.00,CLR,,0.00,WeatherDisplay:10.37,2013-06-18 21:41:00,
2013-06-18 17:46:00,93.9,70.6,29.96,SW,225,6.9,6.9,47,0.00,CLR,,0.00,WeatherDisplay:10.37,2013-06-18 21:46:00,
2013-06-18 17:51:00,93.9,70.6,29.96,SW,225,11.5,11.5,47,0.00,CLR,,0.00,WeatherDisplay:10.37,2013-06-18 21:51:00,
2013-06-18 17:56:00,93.7,70.5,29.96,WSW,248,10.4,10.4,47,0.00,CLR,,0.00,WeatherDisplay:10.37,2013-06-18 21:56:00,
2013-06-18 18:01:00,93.6,70.3,29.96,SW,225,6.9,6.9,47,0.00,CLR,,0.00,WeatherDisplay:10.37,2013-06-18 22:01:00,
2013-06-18 18:06:00,93.6,70.3,29.96,SW,225,10.5,10.5,47,0.00,CLR,,0.00,WeatherDisplay:10.37,2013-06-18 22:06:00,
2013-06-18 18:11:00,93.6,70.3,29.96,SW,225,8.5,8.5,47,0.00,CLR,,0.00,WeatherDisplay:10.37,2013-06-18 22:11:00,
2013-06-18 18:16:00,93.4,70.1,29.96,West,270,5.8,5.8,47,0.00,CLR,,0.00,WeatherDisplay:10.37,2013-06-18 22:16:00,
2013-06-18 18:21:00,93.4,70.1,29.96,WSW,248,10.4,10.4,47,0.00,CLR,,0.00,WeatherDisplay:10.37,2013-06-18 22:21:00,
2013-06-18 18:26:00,93.2,70.0,29.96,West,270,5.8,5.8,47,0.00,CLR,,0.00,WeatherDisplay:10.37,2013-06-18 22:26:00,
2013-06-18 18:31:00,93.2,70.0,29.96,SSW,202,6.9,6.9,47,0.00,CLR,,0.00,WeatherDisplay:10.37,2013-06-18 22:31:00,
2013-06-18 18:36:00,93.2,70.6,29.96,WSW,248,8.1,8.1,48,0.00,CLR,,0.00,WeatherDisplay:10.37,2013-06-18 22:36:00,
2013-06-18 18:41:00,93.0,70.4,29.96,WSW,248,6.9,6.9,48,0.00,CLR,,0.00,WeatherDisplay:10.37,2013-06-18 22:41:00,
2013-06-18 18:46:00,93.0,70.4,29.96,WSW,248,5.8,5.8,48,0.00,CLR,,0.00,WeatherDisplay:10.37,2013-06-18 22:46:00,
2013-06-18 18:51:00,92.8,69.6,29.95,SSW,202,9.2,9.2,47,0.00,CLR,,0.00,WeatherDisplay:10.37,2013-06-18 22:51:00,
2013-06-18 18:56:00,92.7,69.5,29.96,SSW,202,7.4,7.4,47,0.00,CLR,,0.00,WeatherDisplay:10.37,2013-06-18 22:56:00,
2013-06-18 19:01:00,92.5,69.3,29.95,SSW,202,8.1,8.1,47,0.00,CLR,,0.00,WeatherDisplay:10.37,2013-06-18 23:01:00,
2013-06-18 19:06:00,92.5,69.3,29.95,West,270,8.1,8.1,47,0.00,CLR,,0.00,WeatherDisplay:10.37,2013-06-18 23:06:00,
2013-06-18 19:11:00,92.3,69.2,29.95,WSW,248,6.9,6.9,47,0.00,CLR,,0.00,WeatherDisplay:10.37,2013-06-18 23:11:00,
2013-06-18 19:16:00,92.3,69.2,29.96,SW,225,10.4,10.4,47,0.00,CLR,,0.00,WeatherDisplay:10.37,2013-06-18 23:16:00,
2013-06-18 19:21:00,92.1,69.0,29.96,WSW,248,8.1,8.1,47,0.00,CLR,,0.00,WeatherDisplay:10.37,2013-06-18 23:21:00,
2013-06-18 19:26:00,91.8,68.7,29.96,SW,225,6.9,6.9,47,0.00,CLR,,0.00,WeatherDisplay:10.37,2013-06-18 23:26:00,
2013-06-18 19:31:00,91.8,69.3,29.95,SW,225,6.9,6.9,48,0.00,CLR,,0.00,WeatherDisplay:10.37,2013-06-18 23:31:00,
2013-06-18 19:36:00,91.8,69.3,29.95,WSW,248,8.1,8.1,48,0.00,CLR,,0.00,WeatherDisplay:10.37,2013-06-18 23:36:00,
2013-06-18 19:41:00,91.4,69.0,29.95,SW,225,5.8,5.8,48,0.00,CLR,,0.00,WeatherDisplay:10.37,2013-06-18 23:41:00,
2013-06-18 19:46:00,91.4,69.0,29.96,SW,225,5.8,6.0,48,0.00,CLR,,0.00,WeatherDisplay:10.37,2013-06-18 23:46:00,
2013-06-18 19:51:00,91.2,68.8,29.96,WSW,248,4.6,4.6,48,0.00,CLR,,0.00,WeatherDisplay:10.37,2013-06-18 23:51:00,
2013-06-18 19:56:00,91.0,68.6,29.96,SSW,202,4.6,4.6,48,0.00,CLR,,0.00,WeatherDisplay:10.37,2013-06-18 23:56:00,
2013-06-18 20:01:00,90.9,68.5,29.96,SW,225,4.6,4.6,48,0.00,CLR,,0.00,WeatherDisplay:10.37,2013-06-19 00:01:00,
2013-06-18 20:06:00,90.7,68.9,29.97,SSW,202,4.6,4.6,49,0.00,CLR,,0.00,WeatherDisplay:10.37,2013-06-19 00:06:00,
2013-06-18 20:11:00,90.5,68.7,29.96,WSW,248,4.6,4.6,49,0.00,CLR,,0.00,WeatherDisplay:10.37,2013-06-19 00:11:00,
2013-06-18 20:16:00,90.3,68.6,29.96,WSW,248,3.5,3.5,49,0.00,CLR,,0.00,WeatherDisplay:10.37,2013-06-19 00:16:00,
2013-06-18 20:21:00,90.3,68.6,29.96,SSW,202,2.3,2.3,49,0.00,CLR,,0.00,WeatherDisplay:10.37,2013-06-19 00:21:00,
2013-06-18 20:26:00,90.1,68.4,29.97,SE,135,1.1,1.1,49,0.00,CLR,,0.00,WeatherDisplay:10.37,2013-06-19 00:26:00,
2013-06-18 20:31:00,90.0,68.2,29.97,SSW,202,4.6,4.6,49,0.00,CLR,,0.00,WeatherDisplay:10.37,2013-06-19 00:31:00,
2013-06-18 20:36:00,90.0,67.0,29.97,SSE,158,4.6,4.6,47,0.00,CLR,,0.00,WeatherDisplay:10.37,2013-06-19 00:36:00,
2013-06-18 20:41:00,89.6,65.4,29.97,South,180,2.3,2.3,45,0.00,CLR,,0.00,WeatherDisplay:10.37,2013-06-19 00:41:00,
2013-06-18 20:46:00,89.4,63.3,29.98,SW,225,1.1,1.1,42,0.00,CLR,,0.00,WeatherDisplay:10.37,2013-06-19 00:46:00,
2013-06-18 20:51:00,89.2,61.8,29.97,SSE,158,3.5,3.5,40,0.00,CLR,,0.00,WeatherDisplay:10.37,2013-06-19 00:51:00,
2013-06-18 20:56:00,89.2,58.8,29.98,SSW,202,3.5,3.5,36,0.00,CLR,,0.00,WeatherDisplay:10.37,2013-06-19 00:56:00,
2013-06-18 21:01:00,88.9,58.5,29.98,SW,225,3.6,3.6,36,0.00,CLR,,0.00,WeatherDisplay:10.37,2013-06-19 01:01:00,
2013-06-18 21:06:00,88.9,60.7,29.98,WSW,248,3.8,3.8,39,0.00,CLR,,0.00,WeatherDisplay:10.37,2013-06-19 01:06:00,
2013-06-18 21:11:00,88.5,61.8,29.98,SW,225,5.8,5.8,41,0.00,CLR,,0.00,WeatherDisplay:10.37,2013-06-19 01:11:00,
2013-06-18 21:16:00,88.2,62.2,29.98,WSW,248,3.6,3.6,42,0.00,CLR,,0.00,WeatherDisplay:10.37,2013-06-19 01:16:00,
2013-06-18 21:21:00,87.8,63.2,29.98,SW,225,8.3,8.3,44,0.00,CLR,,0.00,WeatherDisplay:10.37,2013-06-19 01:21:00,
2013-06-18 21:26:00,87.6,62.4,29.98,SSW,202,5.8,5.8,43,0.00,CLR,,0.00,WeatherDisplay:10.37,2013-06-19 01:26:00,
2013-06-18 21:31:00,87.4,62.2,29.99,WSW,248,3.5,3.5,43,0.00,CLR,,0.00,WeatherDisplay:10.37,2013-06-19 01:31:00,
2013-06-18 21:36:00,87.3,62.0,29.99,SSW,202,4.6,4.6,43,0.00,CLR,,0.00,WeatherDisplay:10.37,2013-06-19 01:36:00,
2013-06-18 21:41:00,87.1,61.2,30.00,SSW,202,5.8,5.8,42,0.00,CLR,,0.00,WeatherDisplay:10.37,2013-06-19 01:41:00,
2013-06-18 21:46:00,86.9,61.0,30.00,SSW,202,4.6,4.6,42,0.00,CLR,,0.00,WeatherDisplay:10.37,2013-06-19 01:46:00,
2013-06-18 21:51:00,86.7,60.9,30.00,SW,225,6.9,6.9,42,0.00,CLR,,0.00,WeatherDisplay:10.37,2013-06-19 01:51:00,
2013-06-18 21:56:00,86.5,60.0,30.00,SSW,202,4.6,4.6,41,0.00,CLR,,0.00,WeatherDisplay:10.37,2013-06-19 01:56:00,
2013-06-18 22:01:00,86.5,58.6,30.01,SW,225,4.7,4.7,39,0.00,CLR,,0.00,WeatherDisplay:10.37,2013-06-19 02:01:00,
2013-06-18 22:06:00,86.4,58.5,30.00,SW,225,5.8,5.8,39,0.00,CLR,,0.00,WeatherDisplay:10.37,2013-06-19 02:06:00,
2013-06-18 22:11:00,86.4,57.8,30.01,SW,225,5.8,5.8,38,0.00,CLR,,0.00,WeatherDisplay:10.37,2013-06-19 02:11:00,
2013-06-18 22:16:00,86.2,57.6,30.00,SW,225,5.8,5.8,38,0.00,CLR,,0.00,WeatherDisplay:10.37,2013-06-19 02:16:00,
2013-06-18 22:21:00,86.0,56.7,30.01,WSW,248,4.6,4.6,37,0.00,CLR,,0.00,WeatherDisplay:10.37,2013-06-19 02:21:00,
2013-06-18 22:26:00,85.8,55.0,30.01,SW,225,5.8,5.8,35,0.00,CLR,,0.00,WeatherDisplay:10.37,2013-06-19 02:26:00,
2013-06-18 22:31:00,85.8,54.2,30.01,SW,225,5.8,5.8,34,0.00,CLR,,0.00,WeatherDisplay:10.37,2013-06-19 02:31:00,
2013-06-18 22:36:00,85.6,54.0,30.01,WSW,248,5.8,5.8,34,0.00,CLR,,0.00,WeatherDisplay:10.37,2013-06-19 02:36:00,
2013-06-18 22:41:00,85.6,53.2,30.01,SW,225,4.6,4.7,33,0.00,CLR,,0.00,WeatherDisplay:10.37,2013-06-19 02:41:00,
2013-06-18 22:46:00,85.5,52.2,30.01,SW,225,3.6,3.6,32,0.00,CLR,,0.00,WeatherDisplay:10.37,2013-06-19 02:46:00,
2013-06-18 22:51:00,85.3,50.3,30.01,SW,225,5.8,5.8,30,0.00,CLR,,0.00,WeatherDisplay:10.37,2013-06-19 02:51:00,
2013-06-18 22:56:00,85.3,48.5,30.01,SW,225,6.0,6.0,28,0.00,CLR,,0.00,WeatherDisplay:10.37,2013-06-19 02:56:00,
2013-06-18 23:01:00,85.1,46.4,30.01,SW,225,5.4,5.4,26,0.00,CLR,,0.00,WeatherDisplay:10.37,2013-06-19 03:01:00,
2013-06-18 23:06:00,84.9,45.2,30.01,SW,225,4.6,4.6,25,0.00,CLR,,0.00,WeatherDisplay:10.37,2013-06-19 03:06:00,
2013-06-18 23:11:00,84.9,43.0,30.02,SW,225,5.8,5.8,23,0.00,CLR,,0.00,WeatherDisplay:10.37,2013-06-19 03:11:00,
2013-06-18 23:16:00,84.7,40.5,30.02,SW,225,4.6,4.6,21,0.00,CLR,,0.00,WeatherDisplay:10.37,2013-06-19 03:16:00,
2013-06-18 23:21:00,84.7,36.5,30.02,SW,225,4.6,4.6,18,0.00,CLR,,0.00,WeatherDisplay:10.37,2013-06-19 03:21:00,
2013-06-18 23:26:00,84.6,33.4,30.02,SW,225,5.8,5.8,16,0.00,CLR,,0.00,WeatherDisplay:10.37,2013-06-19 03:26:00,
2013-06-18 23:31:00,84.4,28.1,30.02,SW,225,9.2,9.2,13,0.00,CLR,,0.00,WeatherDisplay:10.37,2013-06-19 03:31:00,
2013-06-18 23:36:00,84.2,26.1,30.02,SW,225,5.8,5.8,12,0.00,CLR,,0.00,WeatherDisplay:10.37,2013-06-19 03:36:00,
2013-06-18 23:41:00,84.2,16.5,30.02,West,270,5.2,5.2,8,0.00,CLR,,0.00,WeatherDisplay:10.37,2013-06-19 03:41:00,
2013-06-18 23:46:00,84.2,13.4,30.02,West,270,4.7,4.7,7,0.00,CLR,,0.00,WeatherDisplay:10.37,2013-06-19 03:46:00,
2013-06-18 23:51:00,84.0,5.8,30.02,WSW,248,6.9,6.9,5,0.00,CLR,,0.00,WeatherDisplay:10.37,2013-06-19 03:51:00,
2013-06-18 23:56:00,83.8,-13.5,30.02,West,270,3.5,3.5,2,0.00,CLR,,0.00,WeatherDisplay:10.37,2013-06-19 03:56:00,